Upton, New York
Current Conditions -  °F | °C
As of 7:56 AM on Thursday 23 Oct 2014 (Local Time) from KHWV Reporting Station
Overcast Overcast  
Wind Chill: 52°   Ceiling: 1600
Heat Index: 52°   Visibility: 10mi
Dew Point: 48°   Wind: 17mph
Humidity: 86%   Direction: 350°N
Pressure: 29.63"   Gusts: 26mph
Location:  40.87°N, 72.89°W
Report Text: KHWV 231156Z AUTO 35015G23KT 10SM OVC016 11/09 A2963 RMK AO2 RAB24E55 SLP032 P0002 60022 70103 T01110089 10117 20106 56008 TSNO $
Loading
Personal Weather Stations






























Interactive Weather Map
Tropical Storm Tracking
New forecast layout! Learn more

10-Day Weather Forecast

Advertisements
Track Severe Weather on mobile